Time;durP1;ratioP1;P1;durP2;ratioP2;P2;SDS_P1;SDS_P2;PMS_P1;PMS_P2;Temp;Humidity;BMP_temperature;BMP_pressure;BME280_temperature;BME280_humidity;BME280_pressure;Samples;Min_cycle;Max_cycle;Signal;HPM_P1;HPM_P2
2023/03/16 00:00:48;;;;;;;;;;;3.10;99.90;;;;;;5077136;28;1107;-67
2023/03/16 00:03:19;;;;;;;;;;;2.80;99.90;;;;;;5071667;28;1101;-67
2023/03/16 00:05:47;;;;;;;;;;;2.90;99.90;;;;;;5065764;28;1184;-68
2023/03/16 00:08:13;;;;;;;;;;;2.80;99.90;;;;;;5079520;28;1081;-67
2023/03/16 00:10:45;;;;;;;;;;;2.70;99.90;;;;;;5056061;28;2001;-67
2023/03/16 00:13:13;;;;;;;;;;;2.90;99.90;;;;;;5069766;28;2142;-67
2023/03/16 00:15:39;;;;;;;;;;;2.80;99.90;;;;;;5070852;28;1358;-67
2023/03/16 00:18:05;;;;;;;;;;;2.70;99.90;;;;;;5082285;28;1917;-67
2023/03/16 00:20:32;;;;;;;;;;;2.50;99.90;;;;;;5071922;28;1093;-67
2023/03/16 00:22:58;;;;;;;;;;;2.90;99.90;;;;;;5069948;28;1253;-67
2023/03/16 00:25:24;;;;;;;;;;;2.60;99.90;;;;;;5067360;28;1176;-67
2023/03/16 00:27:49;;;;;;;;;;;2.70;99.90;;;;;;5071317;28;1168;-67
2023/03/16 00:30:15;;;;;;;;;;;3.20;99.90;;;;;;5070890;28;1089;-67
2023/03/16 00:32:41;;;;;;;;;;;2.80;99.90;;;;;;5071960;28;1121;-67
2023/03/16 00:35:08;;;;;;;;;;;2.80;99.90;;;;;;5041642;28;981;-67
2023/03/16 00:37:36;;;;;;;;;;;2.80;99.90;;;;;;5070463;28;2019;-67
2023/03/16 00:40:02;;;;;;;;;;;3.10;99.90;;;;;;5076604;28;1093;-67
2023/03/16 00:42:29;;;;;;;;;;;2.80;99.90;;;;;;5090701;28;1247;-67
2023/03/16 00:44:55;;;;;;;;;;;3.10;99.90;;;;;;5088456;28;1215;-67
2023/03/16 00:47:22;;;;;;;;;;;2.90;99.90;;;;;;5066377;28;1280;-67
2023/03/16 00:49:48;;;;;;;;;;;2.80;99.90;;;;;;5071556;28;1121;-67
2023/03/16 00:52:13;;;;;;;;;;;2.70;99.90;;;;;;5052494;28;1165;-67
2023/03/16 00:54:41;;;;;;;;;;;2.90;99.90;;;;;;5071003;28;1077;-67
2023/03/16 00:57:08;;;;;;;;;;;2.90;99.90;;;;;;5052548;28;2020;-67
2023/03/16 00:59:36;;;;;;;;;;;2.80;99.90;;;;;;5056720;28;1566;-67
2023/03/16 01:02:03;;;;;;;;;;;2.80;99.90;;;;;;5053944;28;1322;-67
2023/03/16 01:04:29;;;;;;;;;;;3.00;99.90;;;;;;5083982;28;1197;-67
2023/03/16 01:06:54;;;;;;;;;;;3.00;99.90;;;;;;5067057;28;1287;-67
2023/03/16 01:09:20;;;;;;;;;;;3.00;99.90;;;;;;5086481;28;1287;-67
2023/03/16 01:11:50;;;;;;;;;;;3.00;99.90;;;;;;5088013;28;1184;-67
2023/03/16 01:14:15;;;;;;;;;;;3.10;99.90;;;;;;5063789;28;1254;-67
2023/03/16 01:16:44;;;;;;;;;;;3.00;99.90;;;;;;5062454;28;1922;-67
2023/03/16 01:19:11;;;;;;;;;;;3.00;99.90;;;;;;5059504;28;1121;-67
2023/03/16 01:21:37;;;;;;;;;;;3.00;99.90;;;;;;5052818;28;1030;-67
2023/03/16 01:24:03;;;;;;;;;;;2.90;99.90;;;;;;5070963;28;1152;-67
2023/03/16 01:26:29;;;;;;;;;;;2.80;99.90;;;;;;5052191;28;1159;-67
2023/03/16 01:28:55;;;;;;;;;;;3.10;99.90;;;;;;5050715;28;1103;-67
2023/03/16 01:31:22;;;;;;;;;;;2.90;99.90;;;;;;5052590;28;1454;-67
2023/03/16 01:33:47;;;;;;;;;;;3.00;99.90;;;;;;5069903;28;1152;-67
2023/03/16 01:36:18;;;;;;;;;;;3.20;99.90;;;;;;5057731;28;1981;-67
2023/03/16 01:38:51;;;;;;;;;;;2.90;99.90;;;;;;5071533;28;1116;-67
2023/03/16 01:41:17;;;;;;;;;;;3.20;99.90;;;;;;5057099;28;1121;-67
2023/03/16 01:43:43;;;;;;;;;;;3.10;99.90;;;;;;5061154;28;1295;-67
2023/03/16 01:46:09;;;;;;;;;;;3.20;99.90;;;;;;5051990;28;1193;-67
2023/03/16 01:48:46;;;;;;;;;;;3.20;99.90;;;;;;5051568;28;1117;-67
2023/03/16 01:51:19;;;;;;;;;;;3.10;99.90;;;;;;5052036;28;1175;-67
2023/03/16 01:53:47;;;;;;;;;;;3.10;99.90;;;;;;5055130;28;1117;-67
2023/03/16 01:56:17;;;;;;;;;;;3.20;99.90;;;;;;5073833;28;1910;-67
2023/03/16 01:58:43;;;;;;;;;;;3.40;99.90;;;;;;5069190;28;1113;-67
2023/03/16 02:01:10;;;;;;;;;;;3.30;99.90;;;;;;5051561;28;1064;-67
2023/03/16 02:03:36;;;;;;;;;;;3.30;99.90;;;;;;5055404;28;1135;-67
2023/03/16 02:06:22;;;;;;;;;;;3.50;99.90;;;;;;5054033;28;1553;-67
2023/03/16 02:08:54;;;;;;;;;;;3.20;99.90;;;;;;5059787;28;1300;-67
2023/03/16 02:11:21;;;;;;;;;;;3.10;99.90;;;;;;5051396;28;1165;-67
2023/03/16 02:14:04;;;;;;;;;;;3.40;99.90;;;;;;5051299;28;1167;-67
2023/03/16 02:16:29;;;;;;;;;;;3.40;99.90;;;;;;5051095;28;1914;-67
2023/03/16 02:18:55;;;;;;;;;;;3.40;99.90;;;;;;5051838;28;1125;-67
2023/03/16 02:21:32;;;;;;;;;;;3.30;99.90;;;;;;5056435;28;1152;-67
2023/03/16 02:23:58;;;;;;;;;;;3.40;99.90;;;;;;5051785;28;1160;-67
2023/03/16 02:26:43;;;;;;;;;;;3.50;99.90;;;;;;5069779;28;1144;-67
2023/03/16 02:29:24;;;;;;;;;;;3.40;99.90;;;;;;5053899;28;1239;-67
2023/03/16 02:31:52;;;;;;;;;;;3.30;99.90;;;;;;5075770;28;1155;-67
2023/03/16 02:34:17;;;;;;;;;;;3.40;99.90;;;;;;5051633;28;1089;-67
2023/03/16 02:36:44;;;;;;;;;;;3.50;99.90;;;;;;5068319;28;1918;-67
2023/03/16 02:39:10;;;;;;;;;;;3.50;99.90;;;;;;5057434;28;1088;-67
2023/03/16 02:41:44;;;;;;;;;;;3.50;99.90;;;;;;5051409;28;1145;-67
2023/03/16 02:44:13;;;;;;;;;;;3.50;99.90;;;;;;5050497;28;1101;-67
2023/03/16 02:46:42;;;;;;;;;;;3.60;99.90;;;;;;5034254;28;1385;-67
2023/03/16 02:49:15;;;;;;;;;;;3.50;99.90;;;;;;5051423;28;1125;-67
2023/03/16 02:51:41;;;;;;;;;;;3.50;99.90;;;;;;5050446;28;1238;-67
2023/03/16 02:54:07;;;;;;;;;;;3.40;99.90;;;;;;5069255;28;1133;-67
2023/03/16 02:56:33;;;;;;;;;;;3.40;99.90;;;;;;5050266;28;1918;-67
2023/03/16 02:59:00;;;;;;;;;;;3.60;99.90;;;;;;5050002;28;1097;-67
2023/03/16 03:01:26;;;;;;;;;;;3.50;99.90;;;;;;5049442;28;1177;-67
2023/03/16 03:03:53;;;;;;;;;;;3.40;99.90;;;;;;5050446;28;1176;-67
2023/03/16 03:06:19;;;;;;;;;;;3.40;99.90;;;;;;5059209;28;1191;-67
2023/03/16 03:08:44;;;;;;;;;;;3.60;99.90;;;;;;5039109;28;1240;-67
2023/03/16 03:11:11;;;;;;;;;;;3.50;99.90;;;;;;5050099;28;1132;-67
2023/03/16 03:13:38;;;;;;;;;;;3.60;99.90;;;;;;5053170;28;1141;-67
2023/03/16 03:16:04;;;;;;;;;;;3.50;99.90;;;;;;5055259;28;1203;-67
2023/03/16 03:18:30;;;;;;;;;;;3.60;99.90;;;;;;5050282;28;1985;-67
2023/03/16 03:20:55;;;;;;;;;;;3.60;99.90;;;;;;5068756;28;1121;-67
2023/03/16 03:23:21;;;;;;;;;;;3.60;99.90;;;;;;5053340;28;1192;-67
2023/03/16 03:25:47;;;;;;;;;;;3.80;99.90;;;;;;5068035;28;1197;-67
2023/03/16 03:28:14;;;;;;;;;;;3.90;99.90;;;;;;5055855;28;1236;-67
2023/03/16 03:30:40;;;;;;;;;;;3.60;99.90;;;;;;5060062;28;1218;-67
2023/03/16 03:33:06;;;;;;;;;;;3.70;99.90;;;;;;5056225;28;1241;-67
2023/03/16 03:35:32;;;;;;;;;;;3.90;99.90;;;;;;5050575;28;1109;-67
2023/03/16 03:37:57;;;;;;;;;;;3.80;99.90;;;;;;5068825;28;1906;-67
2023/03/16 03:40:24;;;;;;;;;;;3.60;99.90;;;;;;5049758;28;1125;-67
2023/03/16 03:42:56;;;;;;;;;;;3.90;99.90;;;;;;5050266;28;1180;-67
2023/03/16 03:45:23;;;;;;;;;;;3.90;99.90;;;;;;5050768;28;1121;-67
2023/03/16 03:47:49;;;;;;;;;;;3.80;99.90;;;;;;5043580;28;1546;-67
2023/03/16 03:50:19;;;;;;;;;;;3.80;99.90;;;;;;5049780;28;1129;-67
2023/03/16 03:52:51;;;;;;;;;;;3.90;99.90;;;;;;5034191;28;1108;-67
2023/03/16 03:55:17;;;;;;;;;;;3.80;99.90;;;;;;5049561;28;1163;-67
2023/03/16 03:57:43;;;;;;;;;;;3.90;99.90;;;;;;5054610;28;1942;-67
2023/03/16 04:00:10;;;;;;;;;;;3.90;99.90;;;;;;5049956;28;1120;-67
2023/03/16 04:02:39;;;;;;;;;;;4.00;99.90;;;;;;5068583;28;1096;-67
2023/03/16 04:05:11;;;;;;;;;;;3.80;99.90;;;;;;5050192;28;1118;-67
2023/03/16 04:07:37;;;;;;;;;;;3.80;99.90;;;;;;5053934;28;1109;-67
2023/03/16 04:10:06;;;;;;;;;;;3.80;99.90;;;;;;5050728;28;1673;-67
2023/03/16 04:12:37;;;;;;;;;;;3.90;99.90;;;;;;5055899;28;1145;-67
2023/03/16 04:15:03;;;;;;;;;;;4.10;99.90;;;;;;5049364;28;1260;-67
2023/03/16 04:17:34;;;;;;;;;;;4.00;99.90;;;;;;5050648;28;1891;-67
2023/03/16 04:20:10;;;;;;;;;;;4.10;99.90;;;;;;5050619;28;1176;-67
2023/03/16 04:22:35;;;;;;;;;;;3.80;99.90;;;;;;5053230;28;1141;-67
2023/03/16 04:25:04;;;;;;;;;;;3.90;99.90;;;;;;5071513;28;1369;-67
2023/03/16 04:27:35;;;;;;;;;;;3.90;99.90;;;;;;5053355;28;1256;-67
2023/03/16 04:30:04;;;;;;;;;;;4.10;99.90;;;;;;5053112;28;1169;-67
2023/03/16 04:32:30;;;;;;;;;;;4.00;99.90;;;;;;5053260;28;1169;-67
2023/03/16 04:34:57;;;;;;;;;;;4.10;99.90;;;;;;5045880;28;1149;-67
2023/03/16 04:37:33;;;;;;;;;;;4.10;99.90;;;;;;5053025;28;1983;-67
2023/03/16 04:39:59;;;;;;;;;;;4.10;99.90;;;;;;5053465;28;1086;-67
2023/03/16 04:42:24;;;;;;;;;;;3.90;99.90;;;;;;5052882;28;1155;-67
2023/03/16 04:44:50;;;;;;;;;;;3.70;99.90;;;;;;5071247;28;1159;-67
2023/03/16 04:47:16;;;;;;;;;;;3.90;99.90;;;;;;5065034;28;1516;-67
2023/03/16 04:49:43;;;;;;;;;;;3.80;99.90;;;;;;5052557;28;959;-67
2023/03/16 04:52:10;;;;;;;;;;;3.80;99.90;;;;;;5044836;28;1249;-67
2023/03/16 04:54:36;;;;;;;;;;;4.00;99.90;;;;;;5053313;28;1090;-67
2023/03/16 04:57:04;;;;;;;;;;;4.00;99.90;;;;;;5046831;28;1913;-67
2023/03/16 04:59:36;;;;;;;;;;;4.10;99.90;;;;;;5048348;28;1146;-67
2023/03/16 05:02:25;;;;;;;;;;;4.00;99.90;;;;;;5053338;28;962;-67
2023/03/16 05:04:51;;;;;;;;;;;4.00;99.90;;;;;;5052242;28;1133;-67
2023/03/16 05:07:17;;;;;;;;;;;4.00;99.90;;;;;;5080332;28;1155;-67
2023/03/16 05:09:48;;;;;;;;;;;4.00;99.90;;;;;;5056608;28;1295;-67
2023/03/16 05:12:14;;;;;;;;;;;4.00;99.90;;;;;;5060839;28;1102;-67
2023/03/16 05:14:42;;;;;;;;;;;3.80;99.90;;;;;;5061820;28;1156;-67
2023/03/16 05:17:18;;;;;;;;;;;4.10;99.90;;;;;;5045809;28;1979;-67
2023/03/16 05:19:45;;;;;;;;;;;4.10;99.90;;;;;;5062078;28;1204;-67
2023/03/16 05:22:12;;;;;;;;;;;4.10;99.90;;;;;;5061863;28;1224;-67
2023/03/16 05:24:47;;;;;;;;;;;3.90;99.90;;;;;;5061711;28;1365;-67
2023/03/16 05:27:12;;;;;;;;;;;3.80;99.90;;;;;;5045366;28;1236;-67
2023/03/16 05:29:38;;;;;;;;;;;4.10;99.90;;;;;;5062876;28;1240;-67
2023/03/16 05:32:05;;;;;;;;;;;4.10;99.90;;;;;;5058903;28;1291;-67
2023/03/16 05:34:31;;;;;;;;;;;4.00;99.90;;;;;;5061275;28;1203;-67
2023/03/16 05:36:57;;;;;;;;;;;4.10;99.90;;;;;;5053246;28;1890;-67
2023/03/16 05:39:24;;;;;;;;;;;4.10;99.90;;;;;;5035026;28;1801;-67
2023/03/16 05:41:49;;;;;;;;;;;4.00;99.90;;;;;;5070311;28;1107;-67
2023/03/16 05:44:26;;;;;;;;;;;3.90;99.90;;;;;;5051784;28;1121;-67
2023/03/16 05:47:07;;;;;;;;;;;4.00;99.90;;;;;;5044528;28;1567;-67
2023/03/16 05:49:37;;;;;;;;;;;3.90;99.90;;;;;;5051998;28;1117;-67
2023/03/16 05:52:07;;;;;;;;;;;4.10;99.90;;;;;;5052016;28;1085;-67
2023/03/16 05:54:34;;;;;;;;;;;4.20;99.90;;;;;;5051295;28;1287;-67
2023/03/16 05:57:00;;;;;;;;;;;4.20;99.90;;;;;;5061011;28;2012;-67
2023/03/16 05:59:26;;;;;;;;;;;4.20;99.90;;;;;;5052073;28;1172;-67
2023/03/16 06:01:55;;;;;;;;;;;4.20;99.90;;;;;;5034500;28;1082;-67
2023/03/16 06:04:21;;;;;;;;;;;4.20;99.90;;;;;;5070113;28;1133;-67
2023/03/16 06:06:47;;;;;;;;;;;4.10;99.90;;;;;;5058358;28;1030;-67
2023/03/16 06:09:18;;;;;;;;;;;4.30;99.90;;;;;;5056984;28;1318;-67
2023/03/16 06:11:45;;;;;;;;;;;3.90;99.90;;;;;;5044313;28;1159;-67
2023/03/16 06:14:13;;;;;;;;;;;4.20;99.90;;;;;;5051243;28;1262;-67
2023/03/16 06:16:39;;;;;;;;;;;4.10;99.90;;;;;;5035383;28;2016;-67
2023/03/16 06:19:05;;;;;;;;;;;4.30;99.90;;;;;;5050836;28;1121;-67
2023/03/16 06:21:32;;;;;;;;;;;4.30;99.90;;;;;;5051407;28;1101;-67
2023/03/16 06:24:06;;;;;;;;;;;4.30;99.90;;;;;;5034885;28;1153;-67
2023/03/16 06:26:32;;;;;;;;;;;4.30;99.90;;;;;;5069131;28;1167;-67
2023/03/16 06:28:58;;;;;;;;;;;4.10;99.90;;;;;;5058860;28;1248;-67
2023/03/16 06:31:24;;;;;;;;;;;4.30;99.90;;;;;;5051430;28;1196;-67
2023/03/16 06:33:50;;;;;;;;;;;4.00;99.90;;;;;;5068932;28;1089;-67
2023/03/16 06:36:16;;;;;;;;;;;4.10;99.90;;;;;;5068628;28;1922;-67
2023/03/16 06:38:46;;;;;;;;;;;4.30;99.90;;;;;;5053362;28;1159;-67
2023/03/16 06:41:20;;;;;;;;;;;4.40;99.90;;;;;;5050865;28;1101;-67
2023/03/16 06:43:47;;;;;;;;;;;4.40;99.90;;;;;;5050327;28;1184;-67
2023/03/16 06:46:12;;;;;;;;;;;4.40;99.90;;;;;;5052846;28;1176;-67
2023/03/16 06:48:38;;;;;;;;;;;4.50;99.90;;;;;;5051017;28;1200;-67
2023/03/16 06:51:06;;;;;;;;;;;4.60;99.90;;;;;;5068640;28;1157;-67
2023/03/16 06:53:33;;;;;;;;;;;4.70;99.90;;;;;;5051488;28;1145;-67
2023/03/16 06:56:00;;;;;;;;;;;4.70;99.90;;;;;;5041991;28;1332;-67
2023/03/16 06:58:28;;;;;;;;;;;4.60;99.90;;;;;;5050267;28;1919;-67
2023/03/16 07:00:53;;;;;;;;;;;4.90;99.90;;;;;;5050933;28;1101;-67
2023/03/16 07:03:20;;;;;;;;;;;4.60;99.90;;;;;;5067677;28;1097;-67
2023/03/16 07:05:51;;;;;;;;;;;4.80;99.90;;;;;;5051128;28;1172;-67
2023/03/16 07:08:17;;;;;;;;;;;4.50;99.90;;;;;;5064151;28;1060;-67
2023/03/16 07:10:43;;;;;;;;;;;4.60;99.90;;;;;;5045813;28;1656;-67
2023/03/16 07:13:08;;;;;;;;;;;4.60;99.90;;;;;;5054814;28;1156;-67
2023/03/16 07:15:34;;;;;;;;;;;4.60;99.90;;;;;;5054511;28;1244;-67
2023/03/16 07:18:00;;;;;;;;;;;4.60;99.90;;;;;;5050073;28;2010;-67
2023/03/16 07:20:29;;;;;;;;;;;4.60;99.90;;;;;;5034696;28;1270;-67
2023/03/16 07:22:55;;;;;;;;;;;4.60;99.90;;;;;;5050321;28;1107;-67
2023/03/16 07:25:21;;;;;;;;;;;4.60;99.90;;;;;;5049741;28;1113;-67
2023/03/16 07:27:52;;;;;;;;;;;4.60;99.90;;;;;;5049586;28;1421;-67
2023/03/16 07:30:24;;;;;;;;;;;4.60;99.90;;;;;;5050413;28;1176;-67
2023/03/16 07:32:50;;;;;;;;;;;4.60;99.90;;;;;;5049927;28;1107;-67
2023/03/16 07:35:19;;;;;;;;;;;4.60;99.90;;;;;;5050884;28;1200;-67
2023/03/16 07:37:44;;;;;;;;;;;4.60;99.90;;;;;;5050838;28;1976;-67
2023/03/16 07:40:10;;;;;;;;;;;4.60;99.90;;;;;;5049309;28;1186;-67
2023/03/16 07:42:36;;;;;;;;;;;4.60;99.90;;;;;;5050684;28;1176;-67
2023/03/16 07:45:08;;;;;;;;;;;4.60;99.90;;;;;;5033326;28;1072;-67
2023/03/16 07:47:34;;;;;;;;;;;4.50;99.90;;;;;;5049939;28;1230;-67
2023/03/16 07:50:09;;;;;;;;;;;4.50;99.90;;;;;;5050523;28;1144;-67
2023/03/16 07:52:37;;;;;;;;;;;4.50;99.90;;;;;;5049643;28;1390;-67
2023/03/16 07:55:04;;;;;;;;;;;4.50;99.90;;;;;;5050594;28;1137;-67
2023/03/16 07:57:30;;;;;;;;;;;4.60;99.90;;;;;;5054728;28;1914;-67
2023/03/16 07:59:57;;;;;;;;;;;4.60;99.90;;;;;;5053633;28;1156;-67
2023/03/16 08:02:23;;;;;;;;;;;4.60;99.90;;;;;;5054157;28;1136;-67
2023/03/16 08:04:50;;;;;;;;;;;4.70;99.90;;;;;;5054306;28;1239;-67
2023/03/16 08:07:17;;;;;;;;;;;4.70;99.90;;;;;;5056461;28;1167;-67
2023/03/16 08:09:55;;;;;;;;;;;4.80;99.90;;;;;;5044751;28;1754;-67
2023/03/16 08:12:27;;;;;;;;;;;4.80;99.90;;;;;;5067263;28;1077;-67
2023/03/16 08:14:53;;;;;;;;;;;4.90;99.90;;;;;;5053099;28;1207;-67
2023/03/16 08:17:24;;;;;;;;;;;4.90;99.90;;;;;;5053711;28;1989;-67
2023/03/16 08:19:50;;;;;;;;;;;4.90;99.90;;;;;;5053900;28;1129;-67
2023/03/16 08:22:16;;;;;;;;;;;4.80;99.90;;;;;;5058826;28;1137;-67
2023/03/16 08:24:45;;;;;;;;;;;4.90;99.90;;;;;;5057343;28;1239;-67
2023/03/16 08:27:14;;;;;;;;;;;5.00;99.90;;;;;;5059575;28;1160;-67
2023/03/16 08:29:44;;;;;;;;;;;5.00;99.90;;;;;;5062861;28;1287;-67
2023/03/16 08:32:14;;;;;;;;;;;5.10;99.90;;;;;;5062652;28;1224;-67
2023/03/16 08:34:42;;;;;;;;;;;5.20;99.90;;;;;;5080586;28;1216;-67
2023/03/16 08:37:09;;;;;;;;;;;5.20;99.90;;;;;;5064305;28;2014;-67
2023/03/16 08:39:35;;;;;;;;;;;5.30;99.90;;;;;;5078034;28;1278;-67
2023/03/16 08:42:06;;;;;;;;;;;5.30;99.90;;;;;;5056276;28;1097;-67
2023/03/16 08:44:40;;;;;;;;;;;5.30;99.90;;;;;;5053853;28;1129;-67
2023/03/16 08:47:05;;;;;;;;;;;5.40;99.90;;;;;;5053209;28;1333;-67
2023/03/16 08:49:33;;;;;;;;;;;5.40;99.90;;;;;;5052360;28;1188;-67
2023/03/16 08:52:04;;;;;;;;;;;5.50;99.90;;;;;;5044201;28;1130;-68
2023/03/16 08:54:32;;;;;;;;;;;5.50;99.90;;;;;;5071028;28;1105;-67
2023/03/16 08:56:58;;;;;;;;;;;5.40;99.90;;;;;;5078556;28;1906;-67
2023/03/16 08:59:23;;;;;;;;;;;5.40;99.90;;;;;;5076946;28;1230;-67
2023/03/16 09:01:49;;;;;;;;;;;5.30;99.90;;;;;;5081904;28;1220;-68
2023/03/16 09:04:15;;;;;;;;;;;5.30;99.90;;;;;;5079343;28;1207;-68
2023/03/16 09:06:41;;;;;;;;;;;5.30;99.90;;;;;;5079904;28;1247;-68
2023/03/16 09:09:08;;;;;;;;;;;5.40;99.90;;;;;;5073004;28;1170;-68
2023/03/16 09:11:34;;;;;;;;;;;5.30;99.90;;;;;;5070403;28;1112;-67
2023/03/16 09:14:01;;;;;;;;;;;5.30;99.90;;;;;;5080535;28;1077;-68
2023/03/16 09:16:27;;;;;;;;;;;5.30;99.90;;;;;;5072655;28;1898;-68
2023/03/16 09:18:53;;;;;;;;;;;5.30;99.90;;;;;;5073141;28;1120;-68
2023/03/16 09:21:18;;;;;;;;;;;5.30;99.90;;;;;;5076365;28;1216;-68
2023/03/16 09:23:44;;;;;;;;;;;5.30;99.90;;;;;;5069627;28;1190;-68
2023/03/16 09:26:11;;;;;;;;;;;5.30;99.90;;;;;;5058606;28;1193;-67
2023/03/16 09:28:37;;;;;;;;;;;5.30;99.90;;;;;;5070304;28;1441;-67
2023/03/16 09:31:04;;;;;;;;;;;5.30;99.90;;;;;;5072416;28;1070;-67
2023/03/16 09:33:30;;;;;;;;;;;5.20;99.90;;;;;;5078535;28;1152;-67
2023/03/16 09:35:57;;;;;;;;;;;5.30;99.90;;;;;;5080187;28;1271;-67
2023/03/16 09:38:25;;;;;;;;;;;5.30;99.90;;;;;;5074898;28;1976;-67
2023/03/16 09:40:57;;;;;;;;;;;5.40;99.90;;;;;;5070435;28;1020;-67
2023/03/16 09:43:35;;;;;;;;;;;5.40;99.90;;;;;;5061250;28;3291;-67
2023/03/16 09:46:10;;;;;;;;;;;5.40;99.90;;;;;;5067846;28;3478;-67
2023/03/16 09:48:37;;;;;;;;;;;5.40;99.90;;;;;;5070094;28;1097;-67
2023/03/16 09:51:04;;;;;;;;;;;5.50;99.90;;;;;;5069078;28;3498;-67
2023/03/16 09:53:33;;;;;;;;;;;5.50;99.90;;;;;;5068984;28;1279;-67
2023/03/16 09:56:02;;;;;;;;;;;5.40;99.90;;;;;;5077034;28;1417;-67
2023/03/16 09:58:27;;;;;;;;;;;5.40;99.90;;;;;;5079371;28;1930;-67
2023/03/16 10:01:09;;;;;;;;;;;5.40;99.90;;;;;;5060870;28;2748;-67
2023/03/16 10:03:43;;;;;;;;;;;5.50;99.90;;;;;;5072273;28;1200;-67
2023/03/16 10:06:11;;;;;;;;;;;5.60;99.90;;;;;;5070954;28;1085;-67
2023/03/16 10:08:41;;;;;;;;;;;5.70;99.90;;;;;;5079653;28;1308;-67
2023/03/16 10:11:08;;;;;;;;;;;5.90;99.90;;;;;;5053339;28;1171;-67
2023/03/16 10:13:40;;;;;;;;;;;6.10;99.90;;;;;;5069205;28;1069;-67
2023/03/16 10:16:09;;;;;;;;;;;6.30;99.90;;;;;;5069032;28;1062;-67
2023/03/16 10:18:40;;;;;;;;;;;6.40;99.90;;;;;;5067421;28;1961;-67
2023/03/16 10:21:10;;;;;;;;;;;6.50;99.90;;;;;;5077033;28;1164;-67
2023/03/16 10:23:36;;;;;;;;;;;6.60;99.90;;;;;;5069404;28;1121;-67
2023/03/16 10:26:06;;;;;;;;;;;6.80;99.90;;;;;;5072657;28;1148;-67
2023/03/16 10:28:32;;;;;;;;;;;7.00;99.90;;;;;;5072251;28;1297;-67
2023/03/16 10:30:59;;;;;;;;;;;7.20;99.90;;;;;;5056710;28;1176;-67
2023/03/16 10:33:27;;;;;;;;;;;7.20;99.90;;;;;;5078481;28;1338;-67
2023/03/16 10:35:54;;;;;;;;;;;7.20;99.90;;;;;;5072994;28;1169;-67
2023/03/16 10:38:26;;;;;;;;;;;7.20;99.90;;;;;;5042829;28;1982;-67
2023/03/16 10:40:52;;;;;;;;;;;7.10;99.90;;;;;;5068901;28;1117;-67
2023/03/16 10:43:18;;;;;;;;;;;7.00;99.90;;;;;;5069184;28;1073;-67
2023/03/16 10:45:45;;;;;;;;;;;6.80;99.90;;;;;;5062967;28;1466;-67
2023/03/16 10:48:13;;;;;;;;;;;6.80;99.90;;;;;;5066526;28;1202;-67
2023/03/16 10:50:40;;;;;;;;;;;6.90;99.90;;;;;;5057124;28;2287;-67
2023/03/16 10:53:15;;;;;;;;;;;6.90;99.90;;;;;;5066530;28;1659;-67
2023/03/16 10:55:42;;;;;;;;;;;6.90;99.90;;;;;;5060736;28;1645;-67
2023/03/16 10:58:08;;;;;;;;;;;7.00;99.90;;;;;;5069036;28;1914;-67
2023/03/16 11:00:35;;;;;;;;;;;7.00;99.90;;;;;;5061784;28;1488;-67
2023/03/16 11:03:12;;;;;;;;;;;7.10;99.90;;;;;;5060765;28;3519;-68
2023/03/16 11:05:38;;;;;;;;;;;7.00;99.90;;;;;;5068745;28;3564;-67
2023/03/16 11:08:12;;;;;;;;;;;7.10;99.90;;;;;;5078013;28;3243;-67
2023/03/16 11:10:46;;;;;;;;;;;6.90;99.90;;;;;;5068114;28;1589;-67
2023/03/16 11:13:14;;;;;;;;;;;6.90;99.90;;;;;;5068267;28;1103;-67
2023/03/16 11:15:49;;;;;;;;;;;6.90;99.90;;;;;;5068840;28;1160;-67
2023/03/16 11:18:21;;;;;;;;;;;6.80;99.90;;;;;;5079069;28;1913;-67
2023/03/16 11:20:47;;;;;;;;;;;6.60;99.90;;;;;;5069625;28;3223;-67
2023/03/16 11:23:15;;;;;;;;;;;6.60;99.90;;;;;;5067901;28;1205;-67
2023/03/16 11:25:45;;;;;;;;;;;6.60;99.90;;;;;;5068668;28;1152;-67
2023/03/16 11:28:14;;;;;;;;;;;6.50;99.90;;;;;;5076073;28;1161;-67
2023/03/16 11:30:45;;;;;;;;;;;6.50;99.90;;;;;;5079884;28;1118;-67
2023/03/16 11:33:12;;;;;;;;;;;6.50;99.90;;;;;;5077612;28;1220;-67
2023/03/16 11:35:50;;;;;;;;;;;6.50;99.90;;;;;;5079885;28;1242;-67
2023/03/16 11:38:20;;;;;;;;;;;6.50;99.90;;;;;;5072733;28;1934;-67
2023/03/16 11:40:46;;;;;;;;;;;6.50;99.90;;;;;;5072328;28;1311;-67
2023/03/16 11:43:12;;;;;;;;;;;6.40;99.90;;;;;;5072412;28;1148;-67
2023/03/16 11:45:42;;;;;;;;;;;6.50;99.90;;;;;;5071765;28;1136;-67
2023/03/16 11:48:18;;;;;;;;;;;6.40;99.90;;;;;;5056612;28;1143;-67
2023/03/16 11:50:57;;;;;;;;;;;6.40;99.90;;;;;;5072280;28;1093;-67
2023/03/16 11:53:45;;;;;;;;;;;6.40;99.90;;;;;;5072025;28;1125;-67
2023/03/16 11:56:22;;;;;;;;;;;6.40;99.90;;;;;;5043890;28;1166;-67
2023/03/16 11:58:57;;;;;;;;;;;6.50;99.90;;;;;;5070942;28;1910;-67
2023/03/16 12:01:31;;;;;;;;;;;6.60;99.90;;;;;;5072261;28;1139;-67
2023/03/16 12:04:06;;;;;;;;;;;6.70;99.90;;;;;;5072029;28;1157;-67
2023/03/16 12:06:42;;;;;;;;;;;6.70;99.90;;;;;;5075978;28;1180;-67
2023/03/16 12:09:14;;;;;;;;;;;6.70;99.90;;;;;;5087553;28;1253;-67
2023/03/16 12:11:53;;;;;;;;;;;6.70;99.90;;;;;;5078437;28;1216;-67
2023/03/16 12:14:25;;;;;;;;;;;6.70;99.90;;;;;;5058807;28;1200;-67
2023/03/16 12:16:56;;;;;;;;;;;6.80;99.90;;;;;;5080940;28;1983;-67
2023/03/16 12:19:26;;;;;;;;;;;6.80;99.90;;;;;;5079505;28;1113;-67
2023/03/16 12:21:56;;;;;;;;;;;6.80;99.90;;;;;;5082594;28;1352;-67
2023/03/16 12:24:25;;;;;;;;;;;6.80;99.90;;;;;;5079953;28;1141;-67
2023/03/16 12:26:52;;;;;;;;;;;6.80;99.90;;;;;;5079814;28;1275;-67
2023/03/16 12:29:27;;;;;;;;;;;6.80;99.90;;;;;;5080066;28;1197;-67
2023/03/16 12:31:57;;;;;;;;;;;6.80;99.90;;;;;;5075911;28;1207;-67
2023/03/16 12:34:28;;;;;;;;;;;6.90;99.90;;;;;;5073577;28;1251;-67
2023/03/16 12:36:54;;;;;;;;;;;6.90;99.90;;;;;;5074913;28;1984;-67
2023/03/16 12:39:28;;;;;;;;;;;7.00;99.90;;;;;;5075618;28;1254;-67
2023/03/16 12:42:04;;;;;;;;;;;7.10;99.90;;;;;;5076117;28;2394;-69
2023/03/16 12:44:33;;;;;;;;;;;7.20;99.90;;;;;;5075087;28;2374;-69
2023/03/16 12:47:05;;;;;;;;;;;7.30;99.90;;;;;;5081848;28;1339;-69
2023/03/16 12:49:33;;;;;;;;;;;7.50;99.90;;;;;;5079043;28;1235;-69
2023/03/16 12:52:00;;;;;;;;;;;7.70;99.90;;;;;;5079934;28;1312;-69
2023/03/16 12:54:26;;;;;;;;;;;7.90;99.90;;;;;;5080730;28;1216;-70
2023/03/16 12:56:58;;;;;;;;;;;8.00;99.90;;;;;;5079817;28;1989;-70
2023/03/16 12:59:24;;;;;;;;;;;8.20;99.90;;;;;;5080944;28;1278;-70
2023/03/16 13:01:55;;;;;;;;;;;8.30;99.90;;;;;;5078722;28;1350;-70
2023/03/16 13:04:32;;;;;;;;;;;8.50;99.90;;;;;;5077254;28;1275;-70
2023/03/16 13:07:04;;;;;;;;;;;8.60;99.90;;;;;;5078886;28;1219;-70
2023/03/16 13:09:31;;;;;;;;;;;8.90;99.90;;;;;;5061617;28;1296;-70
2023/03/16 13:12:03;;;;;;;;;;;9.00;99.90;;;;;;5061920;28;1251;-70
2023/03/16 13:14:37;;;;;;;;;;;9.10;99.90;;;;;;5078184;28;1235;-70
2023/03/16 13:17:05;;;;;;;;;;;9.00;99.90;;;;;;5077135;28;1887;-70
2023/03/16 13:19:36;;;;;;;;;;;8.80;99.90;;;;;;5080416;28;1100;-70
2023/03/16 13:22:05;;;;;;;;;;;8.80;99.90;;;;;;5077352;28;1200;-70
2023/03/16 13:24:39;;;;;;;;;;;8.70;99.90;;;;;;5078240;28;1334;-70
2023/03/16 13:27:14;;;;;;;;;;;8.80;99.90;;;;;;5077431;28;1172;-70
2023/03/16 13:29:40;;;;;;;;;;;8.80;99.90;;;;;;5080479;28;1239;-70
2023/03/16 13:32:07;;;;;;;;;;;8.90;99.90;;;;;;5076920;28;1228;-70
2023/03/16 13:34:37;;;;;;;;;;;8.80;99.90;;;;;;5060256;28;3367;-70
2023/03/16 13:37:03;;;;;;;;;;;8.80;99.90;;;;;;5066356;28;1973;-70
2023/03/16 13:39:29;;;;;;;;;;;8.80;99.90;;;;;;5070566;28;1226;-70
2023/03/16 13:41:58;;;;;;;;;;;8.70;99.90;;;;;;5059952;28;1141;-70
2023/03/16 13:44:24;;;;;;;;;;;8.70;99.90;;;;;;5058638;28;1275;-70
2023/03/16 13:46:49;;;;;;;;;;;8.70;99.90;;;;;;5077394;28;1228;-71
2023/03/16 13:49:16;;;;;;;;;;;8.70;99.90;;;;;;5080253;28;1140;-70
2023/03/16 13:51:44;;;;;;;;;;;8.70;99.90;;;;;;5079748;28;1231;-71
2023/03/16 13:54:20;;;;;;;;;;;8.70;99.90;;;;;;5080148;28;1211;-71
2023/03/16 13:56:46;;;;;;;;;;;8.80;99.90;;;;;;5071085;28;1961;-71
2023/03/16 13:59:12;;;;;;;;;;;8.90;99.90;;;;;;5068911;28;959;-71
2023/03/16 14:01:37;;;;;;;;;;;8.90;99.90;;;;;;5052229;28;1176;-71
2023/03/16 14:04:10;;;;;;;;;;;9.30;99.90;;;;;;5069724;28;1219;-71
2023/03/16 14:06:37;;;;;;;;;;;9.60;99.90;;;;;;5074587;28;1111;-71
2023/03/16 14:09:04;;;;;;;;;;;10.10;99.90;;;;;;5065823;28;1352;-71
2023/03/16 14:11:30;;;;;;;;;;;10.40;99.90;;;;;;5069341;28;1116;-71
2023/03/16 14:13:56;;;;;;;;;;;10.30;99.90;;;;;;5069064;28;1008;-71
2023/03/16 14:16:24;;;;;;;;;;;10.20;99.90;;;;;;5069926;28;1183;-71
2023/03/16 14:18:56;;;;;;;;;;;10.60;99.90;;;;;;5062171;28;3813;-71
2023/03/16 14:21:25;;;;;;;;;;;11.00;99.90;;;;;;5068619;28;3670;-71
2023/03/16 14:23:52;;;;;;;;;;;11.10;99.90;;;;;;5069657;28;1311;-71
2023/03/16 14:26:18;;;;;;;;;;;10.70;99.90;;;;;;5067673;28;3840;-71
2023/03/16 14:28:56;;;;;;;;;;;10.40;99.90;;;;;;5071879;28;1421;-71
2023/03/16 14:31:29;;;;;;;;;;;10.20;99.90;;;;;;5059717;28;1172;-71
2023/03/16 14:33:58;;;;;;;;;;;9.90;99.90;;;;;;5068248;28;1113;-71
2023/03/16 14:36:32;;;;;;;;;;;9.70;99.90;;;;;;5071505;28;3158;-71
2023/03/16 14:39:08;;;;;;;;;;;9.60;99.90;;;;;;5078972;28;1150;-71
2023/03/16 14:41:34;;;;;;;;;;;9.60;99.90;;;;;;5068239;28;1140;-71
2023/03/16 14:44:00;;;;;;;;;;;9.50;99.90;;;;;;5063195;28;1287;-71
2023/03/16 14:46:28;;;;;;;;;;;9.30;99.90;;;;;;5050796;28;2037;-71
2023/03/16 14:49:00;;;;;;;;;;;9.40;99.90;;;;;;5067937;28;1163;-71
2023/03/16 14:51:27;;;;;;;;;;;9.30;99.90;;;;;;5068966;28;1328;-71